createdAt,value
2022-09-11T00:02:46.449Z,92.27
2022-09-11T00:05:54.170Z,92.27
2022-09-11T00:09:03.251Z,92.12
2022-09-11T00:12:12.854Z,91.64
2022-09-11T00:15:21.888Z,91.92
2022-09-11T00:18:36.517Z,92.31
2022-09-11T00:21:44.098Z,92.42
2022-09-11T00:24:52.018Z,91.94
2022-09-11T00:28:02.010Z,92.43
2022-09-11T00:31:10.074Z,92.53
2022-09-11T00:34:20.470Z,92.32
2022-09-11T00:37:30.880Z,92.82
2022-09-11T00:40:46.318Z,92.63
2022-09-11T00:44:01.987Z,92.50
2022-09-11T00:47:13.497Z,92.87
2022-09-11T00:50:24.371Z,92.98
2022-09-11T00:53:34.310Z,92.35
2022-09-11T00:56:44.884Z,92.14
2022-09-11T00:59:56.662Z,91.59
2022-09-11T01:03:05.215Z,91.03
2022-09-11T01:06:17.190Z,91.26
2022-09-11T01:09:24.194Z,91.45
2022-09-11T01:12:38.855Z,91.44
2022-09-11T01:15:54.375Z,91.41
2022-09-11T01:19:10.747Z,91.11
2022-09-11T01:22:45.656Z,90.88
2022-09-11T01:26:17.244Z,90.77
2022-09-11T01:29:32.161Z,90.89
2022-09-11T01:32:46.635Z,90.99
2022-09-11T01:35:59.127Z,90.82
2022-09-11T01:39:08.055Z,90.31
2022-09-11T01:42:18.685Z,90.46
2022-09-11T01:45:32.815Z,90.93
2022-09-11T01:48:44.634Z,90.85
2022-09-11T01:51:58.110Z,90.22
2022-09-11T01:55:09.225Z,90.24
2022-09-11T01:58:22.204Z,90.41
2022-09-11T02:01:33.561Z,90.39
2022-09-11T02:04:44.642Z,90.16
2022-09-11T02:07:59.839Z,90.73
2022-09-11T02:11:12.844Z,90.83
2022-09-11T02:14:30.892Z,90.74
2022-09-11T02:17:53.439Z,90.96
2022-09-11T02:21:01.004Z,91.72
2022-09-11T02:24:10.679Z,91.64
2022-09-11T02:27:28.622Z,91.39
2022-09-11T02:30:40.109Z,91.46
2022-09-11T02:33:49.090Z,91.59
2022-09-11T02:37:14.041Z,91.13
2022-09-11T02:40:40.580Z,91.18
2022-09-11T02:44:04.266Z,91.09
2022-09-11T02:47:23.228Z,90.98
2022-09-11T02:50:36.777Z,90.44
2022-09-11T02:54:00.647Z,89.78
2022-09-11T02:57:15.409Z,90.12
2022-09-11T03:00:25.390Z,90.26
2022-09-11T03:03:41.902Z,89.52
2022-09-11T03:06:53.970Z,89.69
2022-09-11T03:10:02.596Z,89.41
2022-09-11T03:13:10.544Z,89.64
2022-09-11T03:16:17.902Z,89.52
2022-09-11T03:19:27.728Z,89.70
2022-09-11T03:22:39.965Z,90.28
2022-09-11T03:25:53.038Z,89.75
2022-09-11T03:29:03.912Z,89.73
2022-09-11T03:32:12.647Z,89.60
2022-09-11T03:35:18.841Z,89.18
2022-09-11T03:38:28.078Z,89.73
2022-09-11T03:41:35.859Z,89.89
2022-09-11T03:44:42.867Z,90.01
2022-09-11T03:47:49.478Z,89.77
2022-09-11T03:51:03.830Z,90.09
2022-09-11T03:54:16.087Z,89.37
2022-09-11T03:57:23.088Z,89.72
2022-09-11T04:00:35.711Z,89.70
2022-09-11T04:03:42.367Z,89.44
2022-09-11T04:06:48.961Z,89.79
2022-09-11T04:09:56.986Z,89.81
2022-09-11T04:13:03.595Z,89.99
2022-09-11T04:16:13.530Z,90.33
2022-09-11T04:19:22.918Z,89.81
2022-09-11T04:22:35.986Z,89.77
2022-09-11T04:25:49.501Z,89.61
2022-09-11T04:28:57.211Z,89.88
2022-09-11T04:32:06.852Z,89.74
2022-09-11T04:35:16.086Z,89.91
2022-09-11T04:38:24.703Z,90.11
2022-09-11T04:41:36.709Z,90.11
2022-09-11T04:44:48.283Z,90.02
2022-09-11T04:48:04.229Z,89.92
2022-09-11T04:55:13.645Z,89.98
2022-09-11T04:58:39.016Z,89.20
2022-09-11T05:01:53.035Z,89.71
2022-09-11T05:05:03.386Z,89.78
2022-09-11T05:08:30.514Z,90.41
2022-09-11T05:11:48.609Z,90.98
2022-09-11T05:14:57.727Z,91.22
2022-09-11T05:18:05.191Z,90.60
2022-09-11T05:21:15.243Z,90.65
2022-09-11T05:24:24.104Z,91.00
2022-09-11T05:27:31.268Z,91.17
2022-09-11T05:30:39.362Z,90.74
2022-09-11T05:33:46.564Z,90.88
2022-09-11T05:36:52.917Z,90.49
2022-09-11T05:40:00.106Z,90.54
2022-09-11T05:43:06.467Z,90.61
2022-09-11T05:46:17.193Z,90.59
2022-09-11T05:49:24.428Z,91.15
2022-09-11T05:52:32.794Z,91.50
2022-09-11T05:55:42.055Z,90.97
2022-09-11T05:58:48.521Z,90.55
2022-09-11T06:02:00.997Z,90.01
2022-09-11T06:05:07.795Z,90.30
2022-09-11T06:08:15.700Z,90.23
2022-09-11T06:11:23.200Z,90.72
2022-09-11T06:14:28.822Z,90.90
2022-09-11T06:17:36.757Z,90.62
2022-09-11T06:20:42.785Z,90.33
2022-09-11T06:23:49.721Z,89.77
2022-09-11T06:26:56.784Z,89.96
2022-09-11T06:30:03.869Z,90.15
2022-09-11T06:33:14.371Z,90.28
2022-09-11T06:36:21.320Z,89.74
2022-09-11T06:39:28.167Z,89.53
2022-09-11T06:42:38.388Z,90.24
2022-09-11T06:45:45.360Z,90.31
2022-09-11T06:48:55.190Z,89.86
2022-09-11T06:52:03.591Z,88.94
2022-09-11T06:55:15.102Z,89.29
2022-09-11T06:58:25.267Z,89.54
2022-09-11T07:01:36.739Z,89.29
2022-09-11T07:04:50.043Z,89.00
2022-09-11T07:07:59.538Z,88.92
2022-09-11T07:11:08.018Z,88.93
2022-09-11T07:14:14.099Z,89.20
2022-09-11T07:17:20.060Z,89.43
2022-09-11T07:20:29.484Z,88.45
2022-09-11T07:23:36.673Z,88.65
2022-09-11T07:26:44.474Z,88.99
2022-09-11T07:29:56.064Z,88.85
2022-09-11T07:33:05.195Z,88.34
2022-09-11T07:36:14.941Z,88.09
2022-09-11T07:39:21.413Z,88.25
2022-09-11T07:42:27.859Z,88.10
2022-09-11T07:45:33.594Z,88.07
2022-09-11T07:48:41.475Z,88.33
2022-09-11T07:51:49.117Z,88.17
2022-09-11T07:54:55.686Z,88.39
2022-09-11T07:58:04.147Z,87.44
2022-09-11T08:01:11.977Z,86.96
2022-09-11T08:04:19.135Z,87.27
2022-09-11T08:07:27.094Z,87.15
2022-09-11T08:10:34.607Z,86.85
2022-09-11T08:13:41.081Z,87.46
2022-09-11T08:16:47.656Z,85.92
2022-09-11T08:19:53.774Z,84.53
2022-09-11T08:23:01.780Z,82.98
2022-09-11T08:26:09.582Z,81.54
2022-09-11T08:29:15.806Z,82.00
2022-09-11T08:32:22.044Z,82.23
2022-09-11T08:35:28.819Z,82.11
2022-09-11T08:38:37.765Z,82.97
2022-09-11T08:41:50.236Z,82.37
2022-09-11T08:45:00.239Z,82.37
2022-09-11T08:48:10.026Z,82.88
2022-09-11T08:51:20.739Z,81.28
2022-09-11T08:54:31.586Z,78.90
2022-09-11T08:57:45.743Z,76.63
2022-09-11T09:01:01.554Z,74.31
2022-09-11T09:04:31.521Z,72.13
2022-09-11T09:07:48.629Z,69.87
2022-09-11T09:11:12.628Z,69.89
2022-09-11T09:14:58.056Z,71.08
2022-09-11T09:18:17.809Z,72.19
2022-09-11T09:21:32.715Z,71.43
2022-09-11T09:24:47.870Z,70.38
2022-09-11T09:28:03.040Z,70.82
2022-09-11T09:31:16.506Z,70.55
2022-09-11T09:34:27.399Z,73.44
2022-09-11T09:37:35.875Z,73.16
2022-09-11T09:40:46.564Z,72.99
2022-09-11T09:44:01.726Z,72.72
2022-09-11T09:47:14.451Z,71.98
2022-09-11T09:50:23.395Z,71.32
2022-09-11T09:53:37.491Z,71.17
2022-09-11T09:56:44.915Z,72.55
2022-09-11T10:00:01.269Z,73.37
2022-09-11T10:03:23.247Z,73.17
2022-09-11T10:06:33.173Z,72.43
2022-09-11T10:09:42.130Z,73.23
2022-09-11T10:13:07.837Z,73.39
2022-09-11T10:16:51.851Z,73.71
2022-09-11T10:20:13.569Z,73.95
2022-09-11T10:23:31.035Z,74.19
2022-09-11T10:26:47.290Z,73.71
2022-09-11T10:29:55.145Z,74.84
2022-09-11T10:33:05.745Z,74.70
2022-09-11T10:36:15.733Z,73.32
2022-09-11T10:39:24.351Z,74.05
2022-09-11T10:42:35.989Z,71.96
2022-09-11T10:45:41.834Z,70.04
2022-09-11T10:48:56.607Z,67.51
2022-09-11T10:52:05.990Z,66.09
2022-09-11T10:55:18.516Z,66.37
2022-09-11T10:58:28.774Z,65.57
2022-09-11T11:01:35.138Z,66.95
2022-09-11T11:04:43.129Z,66.03
2022-09-11T11:08:14.563Z,66.20
2022-09-11T11:11:40.000Z,66.66
2022-09-11T11:15:10.654Z,65.84
2022-09-11T11:18:39.052Z,64.81
2022-09-11T11:22:00.867Z,63.97
2022-09-11T11:25:20.622Z,62.90
2022-09-11T11:28:47.326Z,62.37
2022-09-11T11:32:19.363Z,59.49
2022-09-11T11:35:34.852Z,58.95
2022-09-11T11:38:49.297Z,57.60
2022-09-11T11:42:11.031Z,58.37
2022-09-11T11:45:26.732Z,54.30
2022-09-11T11:48:40.336Z,54.54
2022-09-11T11:51:53.234Z,52.32
2022-09-11T11:55:08.022Z,51.84
2022-09-11T11:58:24.221Z,54.79
2022-09-11T12:01:38.505Z,55.08
2022-09-11T12:04:52.417Z,57.83
2022-09-11T12:07:58.303Z,57.96
2022-09-11T12:11:08.232Z,59.85
2022-09-11T12:14:34.147Z,61.28
2022-09-11T12:17:40.154Z,62.55
2022-09-11T12:20:57.754Z,62.21
2022-09-11T12:32:42.191Z,61.49
2022-09-11T12:36:04.906Z,61.37
2022-09-11T12:39:35.246Z,59.84
2022-09-11T12:43:24.119Z,59.57
2022-09-11T12:47:17.224Z,59.79
2022-09-11T12:50:35.194Z,60.89
2022-09-11T12:53:46.716Z,62.22
2022-09-11T12:57:20.474Z,61.33
2022-09-11T13:00:44.200Z,60.89
2022-09-11T13:03:59.026Z,59.61
2022-09-11T13:07:16.531Z,59.93
2022-09-11T13:10:35.784Z,61.88
2022-09-11T13:13:48.626Z,63.78
2022-09-11T13:17:05.414Z,63.61
2022-09-11T13:20:33.311Z,64.22
2022-09-11T13:23:45.601Z,65.06
2022-09-11T13:26:55.941Z,65.63
2022-09-11T13:30:07.320Z,65.02
2022-09-11T13:33:30.940Z,64.50
2022-09-11T13:36:37.311Z,65.35
2022-09-11T13:39:44.097Z,66.98
2022-09-11T13:42:47.157Z,65.83
2022-09-11T14:02:49.655Z,63.11
2022-09-11T14:05:54.888Z,63.81
2022-09-11T14:08:58.088Z,59.99
2022-09-11T14:12:03.450Z,59.00
2022-09-11T14:15:17.298Z,55.64
2022-09-11T14:18:29.962Z,52.52
2022-09-11T14:21:35.286Z,48.49
2022-09-11T14:24:38.732Z,46.69
2022-09-11T14:27:44.621Z,47.32
2022-09-11T14:31:10.784Z,47.09
2022-09-11T14:34:18.944Z,45.48
2022-09-11T14:37:22.700Z,46.70
2022-09-11T14:40:25.355Z,47.64
2022-09-11T14:43:32.606Z,49.64
2022-09-11T14:46:37.010Z,49.33
2022-09-11T14:49:39.678Z,50.30
2022-09-11T14:52:43.412Z,49.85
2022-09-11T14:55:46.257Z,50.84
2022-09-11T14:58:49.411Z,49.33
2022-09-11T15:01:53.466Z,50.39
2022-09-11T15:04:58.382Z,50.28
2022-09-11T15:08:01.378Z,50.71
2022-09-11T15:11:06.135Z,50.29
2022-09-11T15:14:23.458Z,49.61
2022-09-11T15:17:36.172Z,49.43
2022-09-11T15:20:39.561Z,48.13
2022-09-11T15:23:42.214Z,48.14
2022-09-11T15:26:45.622Z,49.67
2022-09-11T15:29:48.285Z,49.98
2022-09-11T15:32:52.277Z,49.25
2022-09-11T15:35:56.777Z,49.14
2022-09-11T15:38:59.429Z,50.09
2022-09-11T15:42:02.725Z,49.98
2022-09-11T15:45:07.441Z,49.78
2022-09-11T15:48:11.433Z,51.16
2022-09-11T15:51:15.573Z,52.50
2022-09-11T15:54:20.452Z,53.01
2022-09-11T15:57:23.224Z,51.83
2022-09-11T16:00:25.855Z,50.94
2022-09-11T16:03:30.515Z,51.73
2022-09-11T16:06:37.539Z,51.92
2022-09-11T16:09:40.241Z,52.59
2022-09-11T16:12:43.267Z,52.14
2022-09-11T16:15:46.302Z,51.78
2022-09-11T16:18:50.322Z,53.79
2022-09-11T16:21:53.566Z,52.67
2022-09-11T16:24:56.237Z,52.58
2022-09-11T16:27:58.985Z,52.86
2022-09-11T16:31:02.429Z,53.45
2022-09-11T16:34:06.485Z,55.49
2022-09-11T16:37:10.848Z,55.82
2022-09-11T16:40:13.552Z,55.72
2022-09-11T16:43:21.258Z,57.08
2022-09-11T16:46:26.879Z,59.35
2022-09-11T16:49:44.839Z,60.54
2022-09-11T19:50:09.039Z,84.07
2022-09-11T19:53:14.832Z,84.44
2022-09-11T19:56:23.048Z,84.23
2022-09-11T19:59:29.680Z,84.38
2022-09-11T20:02:34.771Z,84.80
2022-09-11T20:05:42.818Z,84.65
2022-09-11T20:08:49.423Z,85.05
2022-09-11T20:11:55.140Z,84.57
2022-09-11T20:15:02.302Z,84.57
2022-09-11T20:18:07.893Z,84.45
2022-09-11T20:21:15.951Z,84.78
2022-09-11T20:24:22.664Z,85.04
2022-09-11T20:27:27.967Z,85.58
2022-09-11T20:30:35.085Z,85.62
2022-09-11T20:33:40.159Z,86.04
2022-09-11T20:36:47.617Z,85.35
2022-09-11T20:39:52.798Z,85.49
2022-09-11T20:42:58.005Z,85.64
2022-09-11T20:46:04.930Z,85.76
2022-09-11T20:49:09.907Z,85.81
2022-09-11T20:52:17.020Z,85.88
2022-09-11T20:55:22.330Z,85.89
2022-09-11T20:58:27.531Z,86.20
2022-09-11T21:01:35.609Z,86.19
2022-09-11T21:04:41.016Z,86.34
2022-09-11T21:07:47.228Z,86.31
2022-09-11T21:10:52.368Z,86.36
2022-09-11T21:13:57.682Z,86.81
2022-09-11T21:17:03.912Z,86.63
2022-09-11T21:20:09.331Z,86.39
2022-09-11T21:23:15.689Z,86.64
2022-09-11T21:26:22.489Z,86.30
2022-09-11T21:29:27.645Z,86.29
2022-09-11T21:32:34.019Z,86.34
2022-09-11T21:35:39.227Z,86.64
2022-09-11T21:38:44.222Z,86.73
2022-09-11T21:41:49.055Z,86.77
2022-09-11T21:44:55.874Z,86.74
2022-09-11T21:48:03.363Z,86.73
2022-09-11T21:51:10.251Z,86.73
2022-09-11T21:54:15.359Z,86.92
2022-09-11T21:57:21.022Z,87.10
2022-09-11T22:00:26.005Z,87.14
2022-09-11T22:03:32.775Z,87.33
2022-09-11T22:06:38.115Z,87.37
2022-09-11T22:09:43.173Z,87.28
2022-09-11T22:12:48.631Z,87.55
2022-09-11T22:15:53.755Z,87.55
2022-09-11T22:18:59.790Z,87.54
2022-09-11T22:22:05.098Z,87.60
2022-09-11T22:25:11.004Z,87.37
2022-09-11T22:28:18.306Z,87.41
2022-09-11T22:31:29.438Z,87.63
2022-09-11T22:34:37.138Z,87.41
2022-09-11T22:37:42.156Z,87.86
2022-09-11T22:40:47.475Z,87.51
2022-09-11T22:43:52.536Z,87.68
2022-09-11T22:46:58.080Z,87.44
2022-09-11T22:50:04.884Z,87.90
2022-09-11T22:53:10.065Z,87.83
2022-09-11T22:56:15.528Z,87.57
2022-09-11T22:59:22.909Z,87.72
2022-09-11T23:02:28.121Z,87.86
2022-09-11T23:05:51.195Z,87.61
2022-09-11T23:08:56.411Z,87.89
2022-09-11T23:12:01.830Z,88.23
2022-09-11T23:15:07.229Z,88.12
2022-09-11T23:18:12.524Z,87.83
2022-09-11T23:21:18.623Z,87.82
2022-09-11T23:24:25.707Z,88.03
2022-09-11T23:27:30.812Z,88.34
2022-09-11T23:30:35.391Z,88.75
2022-09-11T23:33:40.426Z,88.43
2022-09-11T23:36:47.623Z,88.00
2022-09-11T23:39:52.695Z,88.38
2022-09-11T23:42:57.820Z,88.74
2022-09-11T23:46:03.164Z,89.33
2022-09-11T23:49:08.255Z,89.16
2022-09-11T23:52:14.454Z,88.80
2022-09-11T23:55:19.581Z,88.73
2022-09-11T23:58:25.193Z,88.85
